sensor_id;sensor_type;location;lat;lon;timestamp;temperature;humidity
12276;DHT22;6200;48.144;11.424;2023-06-22T00:01:52;21.70;99.90
12276;DHT22;6200;48.144;11.424;2023-06-22T00:04:18;21.60;99.90
12276;DHT22;6200;48.144;11.424;2023-06-22T00:06:43;21.70;99.90
12276;DHT22;6200;48.144;11.424;2023-06-22T00:09:09;21.70;99.90
12276;DHT22;6200;48.144;11.424;2023-06-22T00:11:36;21.00;99.90
12276;DHT22;6200;48.144;11.424;2023-06-22T00:14:02;21.70;99.90
12276;DHT22;6200;48.144;11.424;2023-06-22T00:16:28;21.60;99.90
12276;DHT22;6200;48.144;11.424;2023-06-22T00:18:53;21.70;99.90
12276;DHT22;6200;48.144;11.424;2023-06-22T00:21:19;21.60;99.90
12276;DHT22;6200;48.144;11.424;2023-06-22T00:23:47;21.60;99.90
12276;DHT22;6200;48.144;11.424;2023-06-22T00:26:13;21.60;99.90
12276;DHT22;6200;48.144;11.424;2023-06-22T00:28:39;21.50;99.90
12276;DHT22;6200;48.144;11.424;2023-06-22T00:31:05;21.60;99.90
12276;DHT22;6200;48.144;11.424;2023-06-22T00:33:30;21.50;99.90
12276;DHT22;6200;48.144;11.424;2023-06-22T00:35:57;21.50;99.90
12276;DHT22;6200;48.144;11.424;2023-06-22T00:38:22;21.50;99.90
12276;DHT22;6200;48.144;11.424;2023-06-22T00:40:48;21.50;99.90
12276;DHT22;6200;48.144;11.424;2023-06-22T00:43:14;21.50;99.90
12276;DHT22;6200;48.144;11.424;2023-06-22T00:45:39;21.50;99.90
12276;DHT22;6200;48.144;11.424;2023-06-22T00:48:06;21.50;99.90
12276;DHT22;6200;48.144;11.424;2023-06-22T00:50:33;21.50;99.90
12276;DHT22;6200;48.144;11.424;2023-06-22T00:53:01;21.40;99.90
12276;DHT22;6200;48.144;11.424;2023-06-22T00:55:30;21.40;99.90
12276;DHT22;6200;48.144;11.424;2023-06-22T00:57:55;21.40;99.90
12276;DHT22;6200;48.144;11.424;2023-06-22T01:00:23;21.50;99.90
12276;DHT22;6200;48.144;11.424;2023-06-22T01:02:51;21.40;99.90
12276;DHT22;6200;48.144;11.424;2023-06-22T01:05:19;21.40;99.90
12276;DHT22;6200;48.144;11.424;2023-06-22T01:10:25;21.30;99.90
12276;DHT22;6200;48.144;11.424;2023-06-22T01:12:55;21.30;99.90
12276;DHT22;6200;48.144;11.424;2023-06-22T01:18:14;21.30;99.90
12276;DHT22;6200;48.144;11.424;2023-06-22T01:20:42;21.30;99.90
12276;DHT22;6200;48.144;11.424;2023-06-22T01:23:26;21.20;99.90
12276;DHT22;6200;48.144;11.424;2023-06-22T01:25:59;21.20;99.90
12276;DHT22;6200;48.144;11.424;2023-06-22T01:28:50;21.20;99.90
12276;DHT22;6200;48.144;11.424;2023-06-22T01:31:18;21.20;99.90
12276;DHT22;6200;48.144;11.424;2023-06-22T01:33:49;21.10;99.90
12276;DHT22;6200;48.144;11.424;2023-06-22T01:36:17;21.10;99.90
12276;DHT22;6200;48.144;11.424;2023-06-22T01:38:43;21.00;99.90
12276;DHT22;6200;48.144;11.424;2023-06-22T01:41:10;21.00;99.90
12276;DHT22;6200;48.144;11.424;2023-06-22T01:43:39;21.00;99.90
12276;DHT22;6200;48.144;11.424;2023-06-22T01:46:05;21.00;99.90
12276;DHT22;6200;48.144;11.424;2023-06-22T01:48:31;20.90;99.90
12276;DHT22;6200;48.144;11.424;2023-06-22T01:50:57;20.90;99.90
12276;DHT22;6200;48.144;11.424;2023-06-22T01:53:24;20.90;99.90
12276;DHT22;6200;48.144;11.424;2023-06-22T01:55:49;20.90;99.90
12276;DHT22;6200;48.144;11.424;2023-06-22T01:58:15;20.90;99.90
12276;DHT22;6200;48.144;11.424;2023-06-22T02:00:53;20.90;99.90
12276;DHT22;6200;48.144;11.424;2023-06-22T02:03:29;20.90;99.90
12276;DHT22;6200;48.144;11.424;2023-06-22T02:06:03;20.90;99.90
12276;DHT22;6200;48.144;11.424;2023-06-22T02:08:33;20.80;99.90
12276;DHT22;6200;48.144;11.424;2023-06-22T02:11:00;20.80;99.90
12276;DHT22;6200;48.144;11.424;2023-06-22T02:13:27;20.80;99.90
12276;DHT22;6200;48.144;11.424;2023-06-22T02:15:53;20.80;99.90
12276;DHT22;6200;48.144;11.424;2023-06-22T02:18:19;20.80;99.90
12276;DHT22;6200;48.144;11.424;2023-06-22T02:20:46;20.80;99.90
12276;DHT22;6200;48.144;11.424;2023-06-22T02:23:11;20.70;99.90
12276;DHT22;6200;48.144;11.424;2023-06-22T02:25:37;20.70;99.90
12276;DHT22;6200;48.144;11.424;2023-06-22T02:28:03;20.70;99.90
12276;DHT22;6200;48.144;11.424;2023-06-22T02:30:29;20.60;99.90
12276;DHT22;6200;48.144;11.424;2023-06-22T02:32:54;20.30;99.90
12276;DHT22;6200;48.144;11.424;2023-06-22T02:35:28;20.50;99.90
12276;DHT22;6200;48.144;11.424;2023-06-22T02:38:00;20.50;99.90
12276;DHT22;6200;48.144;11.424;2023-06-22T02:40:27;20.40;99.90
12276;DHT22;6200;48.144;11.424;2023-06-22T02:42:53;20.40;99.90
12276;DHT22;6200;48.144;11.424;2023-06-22T02:45:18;20.40;99.90
12276;DHT22;6200;48.144;11.424;2023-06-22T02:47:44;20.40;99.90
12276;DHT22;6200;48.144;11.424;2023-06-22T02:50:09;20.30;99.90
12276;DHT22;6200;48.144;11.424;2023-06-22T02:52:35;20.40;99.90
12276;DHT22;6200;48.144;11.424;2023-06-22T02:55:00;20.30;99.90
12276;DHT22;6200;48.144;11.424;2023-06-22T02:57:26;20.30;99.90
12276;DHT22;6200;48.144;11.424;2023-06-22T02:59:51;20.30;99.90
12276;DHT22;6200;48.144;11.424;2023-06-22T03:02:17;20.30;99.90
12276;DHT22;6200;48.144;11.424;2023-06-22T03:04:43;20.20;99.90
12276;DHT22;6200;48.144;11.424;2023-06-22T03:07:09;20.30;99.90
12276;DHT22;6200;48.144;11.424;2023-06-22T03:09:34;20.20;99.90
12276;DHT22;6200;48.144;11.424;2023-06-22T03:12:00;20.20;99.90
12276;DHT22;6200;48.144;11.424;2023-06-22T03:14:27;20.10;99.90
12276;DHT22;6200;48.144;11.424;2023-06-22T03:16:53;20.10;99.90
12276;DHT22;6200;48.144;11.424;2023-06-22T03:19:18;20.10;99.90
12276;DHT22;6200;48.144;11.424;2023-06-22T03:21:44;20.00;99.90
12276;DHT22;6200;48.144;11.424;2023-06-22T03:24:10;20.00;99.90
12276;DHT22;6200;48.144;11.424;2023-06-22T03:26:36;20.00;99.90
12276;DHT22;6200;48.144;11.424;2023-06-22T03:29:01;19.90;99.90
12276;DHT22;6200;48.144;11.424;2023-06-22T03:31:27;19.90;99.90
12276;DHT22;6200;48.144;11.424;2023-06-22T03:33:52;19.80;99.90
12276;DHT22;6200;48.144;11.424;2023-06-22T03:36:18;19.80;99.90
12276;DHT22;6200;48.144;11.424;2023-06-22T03:38:48;19.80;99.90
12276;DHT22;6200;48.144;11.424;2023-06-22T03:41:14;19.70;99.90
12276;DHT22;6200;48.144;11.424;2023-06-22T03:43:40;19.70;99.90
12276;DHT22;6200;48.144;11.424;2023-06-22T03:46:06;19.70;99.90
12276;DHT22;6200;48.144;11.424;2023-06-22T03:48:31;19.70;99.90
12276;DHT22;6200;48.144;11.424;2023-06-22T03:50:58;19.70;99.90
12276;DHT22;6200;48.144;11.424;2023-06-22T03:53:24;19.60;99.90
12276;DHT22;6200;48.144;11.424;2023-06-22T03:55:53;19.60;99.90
12276;DHT22;6200;48.144;11.424;2023-06-22T03:58:19;19.70;99.90
12276;DHT22;6200;48.144;11.424;2023-06-22T04:00:46;19.60;99.90
12276;DHT22;6200;48.144;11.424;2023-06-22T04:03:12;19.70;99.90
12276;DHT22;6200;48.144;11.424;2023-06-22T04:05:39;19.70;99.90
12276;DHT22;6200;48.144;11.424;2023-06-22T04:08:05;19.70;99.90
12276;DHT22;6200;48.144;11.424;2023-06-22T04:10:31;19.70;99.90
12276;DHT22;6200;48.144;11.424;2023-06-22T04:12:56;19.70;99.90
12276;DHT22;6200;48.144;11.424;2023-06-22T04:15:22;19.70;99.90
12276;DHT22;6200;48.144;11.424;2023-06-22T04:17:48;19.70;99.90
12276;DHT22;6200;48.144;11.424;2023-06-22T04:20:13;19.70;99.90
12276;DHT22;6200;48.144;11.424;2023-06-22T04:22:39;19.70;99.90
12276;DHT22;6200;48.144;11.424;2023-06-22T04:25:05;19.70;99.90
12276;DHT22;6200;48.144;11.424;2023-06-22T04:27:33;19.70;99.90
12276;DHT22;6200;48.144;11.424;2023-06-22T04:30:04;19.80;99.90
12276;DHT22;6200;48.144;11.424;2023-06-22T04:32:29;19.80;99.90
12276;DHT22;6200;48.144;11.424;2023-06-22T04:34:55;19.90;99.90
12276;DHT22;6200;48.144;11.424;2023-06-22T04:37:20;19.80;99.90
12276;DHT22;6200;48.144;11.424;2023-06-22T04:39:49;19.90;99.90
12276;DHT22;6200;48.144;11.424;2023-06-22T04:42:14;19.90;99.90
12276;DHT22;6200;48.144;11.424;2023-06-22T04:44:40;20.00;99.90
12276;DHT22;6200;48.144;11.424;2023-06-22T04:47:07;20.00;99.90
12276;DHT22;6200;48.144;11.424;2023-06-22T04:49:34;20.00;99.90
12276;DHT22;6200;48.144;11.424;2023-06-22T04:52:02;20.00;99.90
12276;DHT22;6200;48.144;11.424;2023-06-22T04:54:29;20.10;99.90
12276;DHT22;6200;48.144;11.424;2023-06-22T04:56:58;20.10;99.90
12276;DHT22;6200;48.144;11.424;2023-06-22T04:59:25;20.10;99.90
12276;DHT22;6200;48.144;11.424;2023-06-22T05:01:57;20.20;99.90
12276;DHT22;6200;48.144;11.424;2023-06-22T05:04:23;20.30;99.90
12276;DHT22;6200;48.144;11.424;2023-06-22T05:06:50;20.30;99.90
12276;DHT22;6200;48.144;11.424;2023-06-22T05:09:16;20.30;99.90
12276;DHT22;6200;48.144;11.424;2023-06-22T05:11:43;20.30;99.90
12276;DHT22;6200;48.144;11.424;2023-06-22T05:14:08;20.40;99.90
12276;DHT22;6200;48.144;11.424;2023-06-22T05:16:34;20.50;99.90
12276;DHT22;6200;48.144;11.424;2023-06-22T05:18:59;20.50;99.90
12276;DHT22;6200;48.144;11.424;2023-06-22T05:21:26;20.60;99.90
12276;DHT22;6200;48.144;11.424;2023-06-22T05:23:53;20.70;99.90
12276;DHT22;6200;48.144;11.424;2023-06-22T05:26:20;20.70;99.90
12276;DHT22;6200;48.144;11.424;2023-06-22T05:28:46;20.80;99.90
12276;DHT22;6200;48.144;11.424;2023-06-22T05:31:15;20.90;99.90
12276;DHT22;6200;48.144;11.424;2023-06-22T05:33:42;21.00;99.90
12276;DHT22;6200;48.144;11.424;2023-06-22T05:36:08;21.10;99.90
12276;DHT22;6200;48.144;11.424;2023-06-22T05:38:34;21.20;99.90
12276;DHT22;6200;48.144;11.424;2023-06-22T05:41:00;21.40;99.90
12276;DHT22;6200;48.144;11.424;2023-06-22T05:43:25;21.50;99.90
12276;DHT22;6200;48.144;11.424;2023-06-22T05:45:51;21.70;99.90
12276;DHT22;6200;48.144;11.424;2023-06-22T05:48:17;21.80;99.90
12276;DHT22;6200;48.144;11.424;2023-06-22T05:50:42;22.00;99.90
12276;DHT22;6200;48.144;11.424;2023-06-22T05:53:08;22.10;99.90
12276;DHT22;6200;48.144;11.424;2023-06-22T05:55:34;22.20;99.90
12276;DHT22;6200;48.144;11.424;2023-06-22T05:57:59;22.20;99.90
12276;DHT22;6200;48.144;11.424;2023-06-22T06:00:25;22.40;99.90
12276;DHT22;6200;48.144;11.424;2023-06-22T06:02:51;22.50;99.90
12276;DHT22;6200;48.144;11.424;2023-06-22T06:05:16;22.70;99.90
12276;DHT22;6200;48.144;11.424;2023-06-22T06:07:42;22.80;99.90
12276;DHT22;6200;48.144;11.424;2023-06-22T06:10:09;23.00;99.90
12276;DHT22;6200;48.144;11.424;2023-06-22T06:12:34;23.20;99.90
12276;DHT22;6200;48.144;11.424;2023-06-22T06:15:01;23.40;99.90
12276;DHT22;6200;48.144;11.424;2023-06-22T06:17:26;23.60;99.90
12276;DHT22;6200;48.144;11.424;2023-06-22T06:19:52;23.80;99.90
12276;DHT22;6200;48.144;11.424;2023-06-22T06:22:18;24.10;99.90
12276;DHT22;6200;48.144;11.424;2023-06-22T06:24:45;24.50;99.90
12276;DHT22;6200;48.144;11.424;2023-06-22T06:27:11;25.00;99.90
12276;DHT22;6200;48.144;11.424;2023-06-22T06:29:36;25.50;99.90
12276;DHT22;6200;48.144;11.424;2023-06-22T06:32:02;26.20;99.90
12276;DHT22;6200;48.144;11.424;2023-06-22T06:34:27;26.80;98.50
12276;DHT22;6200;48.144;11.424;2023-06-22T06:36:53;27.20;97.10
12276;DHT22;6200;48.144;11.424;2023-06-22T06:39:18;27.80;96.40
12276;DHT22;6200;48.144;11.424;2023-06-22T06:41:45;28.30;94.80
12276;DHT22;6200;48.144;11.424;2023-06-22T06:44:11;28.70;93.40
12276;DHT22;6200;48.144;11.424;2023-06-22T06:46:36;29.10;92.50
12276;DHT22;6200;48.144;11.424;2023-06-22T06:49:03;29.60;91.70
12276;DHT22;6200;48.144;11.424;2023-06-22T06:51:28;29.80;90.50
12276;DHT22;6200;48.144;11.424;2023-06-22T06:53:54;30.10;89.60
12276;DHT22;6200;48.144;11.424;2023-06-22T06:56:20;30.40;88.70
12276;DHT22;6200;48.144;11.424;2023-06-22T06:58:46;30.80;86.10
12276;DHT22;6200;48.144;11.424;2023-06-22T07:01:12;31.00;85.70
12276;DHT22;6200;48.144;11.424;2023-06-22T07:03:38;31.10;84.90
12276;DHT22;6200;48.144;11.424;2023-06-22T07:06:03;31.40;83.50
12276;DHT22;6200;48.144;11.424;2023-06-22T07:08:29;31.50;82.20
12276;DHT22;6200;48.144;11.424;2023-06-22T07:10:55;31.60;82.20
12276;DHT22;6200;48.144;11.424;2023-06-22T07:13:21;32.10;80.60
12276;DHT22;6200;48.144;11.424;2023-06-22T07:15:46;32.20;78.90
12276;DHT22;6200;48.144;11.424;2023-06-22T07:18:12;32.50;78.00
12276;DHT22;6200;48.144;11.424;2023-06-22T07:20:37;32.40;77.50
12276;DHT22;6200;48.144;11.424;2023-06-22T07:23:04;32.70;76.80
12276;DHT22;6200;48.144;11.424;2023-06-22T07:25:30;32.80;77.70
12276;DHT22;6200;48.144;11.424;2023-06-22T07:28:04;32.80;75.70
12276;DHT22;6200;48.144;11.424;2023-06-22T07:30:31;32.70;76.60
12276;DHT22;6200;48.144;11.424;2023-06-22T07:32:57;32.70;75.30
12276;DHT22;6200;48.144;11.424;2023-06-22T07:35:23;32.50;76.00
12276;DHT22;6200;48.144;11.424;2023-06-22T07:37:49;32.80;77.50
12276;DHT22;6200;48.144;11.424;2023-06-22T07:40:14;31.40;79.20
12276;DHT22;6200;48.144;11.424;2023-06-22T07:42:40;31.40;79.10
12276;DHT22;6200;48.144;11.424;2023-06-22T07:45:06;31.40;78.50
12276;DHT22;6200;48.144;11.424;2023-06-22T07:47:33;31.50;78.90
12276;DHT22;6200;48.144;11.424;2023-06-22T07:50:01;31.60;77.40
12276;DHT22;6200;48.144;11.424;2023-06-22T07:52:28;31.80;77.50
12276;DHT22;6200;48.144;11.424;2023-06-22T07:54:53;31.80;78.00
12276;DHT22;6200;48.144;11.424;2023-06-22T07:57:20;31.80;77.30
12276;DHT22;6200;48.144;11.424;2023-06-22T07:59:45;31.80;77.80
12276;DHT22;6200;48.144;11.424;2023-06-22T08:02:11;31.80;77.40
12276;DHT22;6200;48.144;11.424;2023-06-22T08:04:37;31.60;77.50
12276;DHT22;6200;48.144;11.424;2023-06-22T08:07:03;31.40;79.00
12276;DHT22;6200;48.144;11.424;2023-06-22T08:09:31;31.10;76.90
12276;DHT22;6200;48.144;11.424;2023-06-22T08:11:58;30.50;79.90
12276;DHT22;6200;48.144;11.424;2023-06-22T08:14:26;30.30;82.80
12276;DHT22;6200;48.144;11.424;2023-06-22T08:16:51;30.10;82.50
12276;DHT22;6200;48.144;11.424;2023-06-22T08:19:17;30.10;82.80
12276;DHT22;6200;48.144;11.424;2023-06-22T08:21:43;30.20;84.80
12276;DHT22;6200;48.144;11.424;2023-06-22T08:24:09;30.20;83.20
12276;DHT22;6200;48.144;11.424;2023-06-22T08:26:34;30.30;80.60
12276;DHT22;6200;48.144;11.424;2023-06-22T08:29:03;30.40;79.90
12276;DHT22;6200;48.144;11.424;2023-06-22T08:31:30;30.50;81.90
12276;DHT22;6200;48.144;11.424;2023-06-22T08:33:55;30.50;82.40
12276;DHT22;6200;48.144;11.424;2023-06-22T08:36:21;30.60;79.80
12276;DHT22;6200;48.144;11.424;2023-06-22T08:38:47;30.60;81.30
12276;DHT22;6200;48.144;11.424;2023-06-22T08:41:16;30.50;79.80
12276;DHT22;6200;48.144;11.424;2023-06-22T08:43:43;30.50;80.60
12276;DHT22;6200;48.144;11.424;2023-06-22T08:46:10;30.40;81.30
12276;DHT22;6200;48.144;11.424;2023-06-22T08:48:36;30.40;81.90
12276;DHT22;6200;48.144;11.424;2023-06-22T08:51:01;30.30;81.50
12276;DHT22;6200;48.144;11.424;2023-06-22T08:53:28;30.40;81.10
12276;DHT22;6200;48.144;11.424;2023-06-22T08:55:53;30.50;81.10
12276;DHT22;6200;48.144;11.424;2023-06-22T08:58:19;30.60;81.00
12276;DHT22;6200;48.144;11.424;2023-06-22T09:00:45;30.70;79.50
12276;DHT22;6200;48.144;11.424;2023-06-22T09:03:11;30.80;81.20
12276;DHT22;6200;48.144;11.424;2023-06-22T09:05:37;30.90;80.40
12276;DHT22;6200;48.144;11.424;2023-06-22T09:08:03;31.00;78.00
12276;DHT22;6200;48.144;11.424;2023-06-22T09:10:28;31.10;80.70
12276;DHT22;6200;48.144;11.424;2023-06-22T09:12:54;31.30;77.60
12276;DHT22;6200;48.144;11.424;2023-06-22T09:15:19;31.30;77.90
12276;DHT22;6200;48.144;11.424;2023-06-22T09:17:45;31.30;76.80
12276;DHT22;6200;48.144;11.424;2023-06-22T09:20:11;31.50;80.50
12276;DHT22;6200;48.144;11.424;2023-06-22T09:22:37;31.60;79.50
12276;DHT22;6200;48.144;11.424;2023-06-22T09:25:04;31.80;76.90
12276;DHT22;6200;48.144;11.424;2023-06-22T09:27:30;31.80;75.20
12276;DHT22;6200;48.144;11.424;2023-06-22T09:29:56;31.80;76.50
12276;DHT22;6200;48.144;11.424;2023-06-22T09:32:24;32.10;76.00
12276;DHT22;6200;48.144;11.424;2023-06-22T09:34:49;32.20;77.00
12276;DHT22;6200;48.144;11.424;2023-06-22T09:37:15;32.20;74.50
12276;DHT22;6200;48.144;11.424;2023-06-22T09:39:40;32.10;77.00
12276;DHT22;6200;48.144;11.424;2023-06-22T09:42:06;32.20;76.70
12276;DHT22;6200;48.144;11.424;2023-06-22T09:44:32;32.30;75.60
12276;DHT22;6200;48.144;11.424;2023-06-22T09:46:57;32.50;75.20
12276;DHT22;6200;48.144;11.424;2023-06-22T09:49:23;32.70;74.90
12276;DHT22;6200;48.144;11.424;2023-06-22T09:51:48;32.90;72.10
12276;DHT22;6200;48.144;11.424;2023-06-22T09:54:16;33.00;73.20
12276;DHT22;6200;48.144;11.424;2023-06-22T09:56:42;33.10;74.60
12276;DHT22;6200;48.144;11.424;2023-06-22T09:59:07;33.30;74.70
12276;DHT22;6200;48.144;11.424;2023-06-22T10:01:33;33.20;71.70
12276;DHT22;6200;48.144;11.424;2023-06-22T10:03:58;33.40;70.90
12276;DHT22;6200;48.144;11.424;2023-06-22T10:06:24;33.50;71.50
12276;DHT22;6200;48.144;11.424;2023-06-22T10:08:51;33.70;71.00
12276;DHT22;6200;48.144;11.424;2023-06-22T10:11:16;34.00;71.10
12276;DHT22;6200;48.144;11.424;2023-06-22T10:13:42;34.10;71.30
12276;DHT22;6200;48.144;11.424;2023-06-22T10:16:07;34.30;68.30
12276;DHT22;6200;48.144;11.424;2023-06-22T10:18:33;34.30;68.20
12276;DHT22;6200;48.144;11.424;2023-06-22T10:20:59;34.30;69.70
12276;DHT22;6200;48.144;11.424;2023-06-22T10:23:24;34.50;67.50
12276;DHT22;6200;48.144;11.424;2023-06-22T10:25:50;34.50;67.30
12276;DHT22;6200;48.144;11.424;2023-06-22T10:28:16;34.70;66.60
12276;DHT22;6200;48.144;11.424;2023-06-22T10:30:42;34.90;68.10
12276;DHT22;6200;48.144;11.424;2023-06-22T10:33:11;35.00;67.50
12276;DHT22;6200;48.144;11.424;2023-06-22T10:35:37;35.00;66.10
12276;DHT22;6200;48.144;11.424;2023-06-22T10:38:03;35.10;66.60
12276;DHT22;6200;48.144;11.424;2023-06-22T10:40:29;35.20;65.40
12276;DHT22;6200;48.144;11.424;2023-06-22T10:42:54;35.40;65.10
12276;DHT22;6200;48.144;11.424;2023-06-22T10:45:20;35.50;64.60
12276;DHT22;6200;48.144;11.424;2023-06-22T10:47:46;35.60;64.60
12276;DHT22;6200;48.144;11.424;2023-06-22T10:50:12;35.80;63.20
12276;DHT22;6200;48.144;11.424;2023-06-22T10:52:37;36.00;65.20
12276;DHT22;6200;48.144;11.424;2023-06-22T10:55:03;36.00;64.50
12276;DHT22;6200;48.144;11.424;2023-06-22T10:57:29;35.90;63.20
12276;DHT22;6200;48.144;11.424;2023-06-22T10:59:54;35.60;64.10
12276;DHT22;6200;48.144;11.424;2023-06-22T11:02:20;35.40;65.20
12276;DHT22;6200;48.144;11.424;2023-06-22T11:04:46;35.30;64.10
12276;DHT22;6200;48.144;11.424;2023-06-22T11:07:13;35.20;64.10
12276;DHT22;6200;48.144;11.424;2023-06-22T11:09:38;35.10;67.00
12276;DHT22;6200;48.144;11.424;2023-06-22T11:12:05;35.00;66.20
12276;DHT22;6200;48.144;11.424;2023-06-22T11:14:31;35.00;67.30
12276;DHT22;6200;48.144;11.424;2023-06-22T11:16:59;35.00;66.60
12276;DHT22;6200;48.144;11.424;2023-06-22T11:19:24;35.00;65.10
12276;DHT22;6200;48.144;11.424;2023-06-22T11:21:50;35.00;66.10
12276;DHT22;6200;48.144;11.424;2023-06-22T11:24:16;35.20;67.40
12276;DHT22;6200;48.144;11.424;2023-06-22T11:26:42;35.40;65.40
12276;DHT22;6200;48.144;11.424;2023-06-22T11:29:07;35.40;67.60
12276;DHT22;6200;48.144;11.424;2023-06-22T11:31:34;35.70;63.70
12276;DHT22;6200;48.144;11.424;2023-06-22T11:33:59;35.80;66.00
12276;DHT22;6200;48.144;11.424;2023-06-22T11:36:25;36.10;66.20
12276;DHT22;6200;48.144;11.424;2023-06-22T11:38:51;36.30;62.20
12276;DHT22;6200;48.144;11.424;2023-06-22T11:41:17;36.40;64.70
12276;DHT22;6200;48.144;11.424;2023-06-22T11:43:42;36.40;64.10
12276;DHT22;6200;48.144;11.424;2023-06-22T11:46:08;36.70;64.10
12276;DHT22;6200;48.144;11.424;2023-06-22T11:48:33;36.70;61.50
12276;DHT22;6200;48.144;11.424;2023-06-22T11:50:59;36.80;62.60
12276;DHT22;6200;48.144;11.424;2023-06-22T11:53:26;36.90;64.40
12276;DHT22;6200;48.144;11.424;2023-06-22T11:55:52;37.00;62.10
12276;DHT22;6200;48.144;11.424;2023-06-22T11:58:19;37.20;63.80
12276;DHT22;6200;48.144;11.424;2023-06-22T12:00:44;37.20;62.20
12276;DHT22;6200;48.144;11.424;2023-06-22T12:03:10;37.10;61.70
12276;DHT22;6200;48.144;11.424;2023-06-22T12:05:37;37.10;60.90
12276;DHT22;6200;48.144;11.424;2023-06-22T12:08:03;37.10;59.40
12276;DHT22;6200;48.144;11.424;2023-06-22T12:10:29;37.10;61.80
12276;DHT22;6200;48.144;11.424;2023-06-22T12:12:54;38.40;63.60
12276;DHT22;6200;48.144;11.424;2023-06-22T12:15:20;37.30;61.00
12276;DHT22;6200;48.144;11.424;2023-06-22T12:17:45;37.40;60.10
12276;DHT22;6200;48.144;11.424;2023-06-22T12:20:11;37.40;60.20
12276;DHT22;6200;48.144;11.424;2023-06-22T12:22:37;37.20;61.10
12276;DHT22;6200;48.144;11.424;2023-06-22T12:25:03;37.00;59.00
12276;DHT22;6200;48.144;11.424;2023-06-22T12:27:29;36.90;61.10
12276;DHT22;6200;48.144;11.424;2023-06-22T12:29:56;36.70;62.40
12276;DHT22;6200;48.144;11.424;2023-06-22T12:32:21;36.90;60.60
12276;DHT22;6200;48.144;11.424;2023-06-22T12:34:47;36.90;61.10
12276;DHT22;6200;48.144;11.424;2023-06-22T12:37:12;37.20;61.70
12276;DHT22;6200;48.144;11.424;2023-06-22T12:39:40;37.40;61.60
12276;DHT22;6200;48.144;11.424;2023-06-22T12:42:06;37.40;60.00
12276;DHT22;6200;48.144;11.424;2023-06-22T12:44:34;37.40;60.40
12276;DHT22;6200;48.144;11.424;2023-06-22T12:47:00;37.20;58.90
12276;DHT22;6200;48.144;11.424;2023-06-22T12:49:25;37.10;59.20
12276;DHT22;6200;48.144;11.424;2023-06-22T12:51:51;36.90;59.70
12276;DHT22;6200;48.144;11.424;2023-06-22T12:54:16;36.70;61.40
12276;DHT22;6200;48.144;11.424;2023-06-22T12:56:42;36.50;62.50
12276;DHT22;6200;48.144;11.424;2023-06-22T12:59:10;36.40;61.00
12276;DHT22;6200;48.144;11.424;2023-06-22T13:01:35;36.20;61.60
12276;DHT22;6200;48.144;11.424;2023-06-22T13:04:02;36.20;61.90
12276;DHT22;6200;48.144;11.424;2023-06-22T13:06:29;36.30;63.30
12276;DHT22;6200;48.144;11.424;2023-06-22T13:08:54;36.50;63.20
12276;DHT22;6200;48.144;11.424;2023-06-22T13:11:20;36.60;60.60
12276;DHT22;6200;48.144;11.424;2023-06-22T13:13:46;36.80;62.00
12276;DHT22;6200;48.144;11.424;2023-06-22T13:16:12;37.00;63.10
12276;DHT22;6200;48.144;11.424;2023-06-22T13:18:38;37.20;63.20
12276;DHT22;6200;48.144;11.424;2023-06-22T13:21:04;37.50;60.80
12276;DHT22;6200;48.144;11.424;2023-06-22T13:23:30;37.80;62.40
12276;DHT22;6200;48.144;11.424;2023-06-22T13:25:55;38.10;58.20
12276;DHT22;6200;48.144;11.424;2023-06-22T13:28:21;38.40;57.40
12276;DHT22;6200;48.144;11.424;2023-06-22T13:30:47;38.40;57.70
12276;DHT22;6200;48.144;11.424;2023-06-22T13:33:16;38.50;57.80
12276;DHT22;6200;48.144;11.424;2023-06-22T13:35:42;38.80;56.40
12276;DHT22;6200;48.144;11.424;2023-06-22T13:38:11;38.80;57.70
12276;DHT22;6200;48.144;11.424;2023-06-22T13:40:37;39.10;57.00
12276;DHT22;6200;48.144;11.424;2023-06-22T13:43:05;39.30;56.40
12276;DHT22;6200;48.144;11.424;2023-06-22T13:45:31;39.30;55.40
12276;DHT22;6200;48.144;11.424;2023-06-22T13:47:57;39.30;55.20
12276;DHT22;6200;48.144;11.424;2023-06-22T13:50:23;39.20;55.60
12276;DHT22;6200;48.144;11.424;2023-06-22T13:52:49;39.20;55.20
12276;DHT22;6200;48.144;11.424;2023-06-22T13:55:14;39.50;55.20
12276;DHT22;6200;48.144;11.424;2023-06-22T13:57:40;39.50;55.00
12276;DHT22;6200;48.144;11.424;2023-06-22T14:00:07;39.20;56.00
12276;DHT22;6200;48.144;11.424;2023-06-22T14:02:33;39.10;56.50
12276;DHT22;6200;48.144;11.424;2023-06-22T14:04:59;39.00;56.70
12276;DHT22;6200;48.144;11.424;2023-06-22T14:07:25;38.60;57.40
12276;DHT22;6200;48.144;11.424;2023-06-22T14:09:50;38.40;58.00
12276;DHT22;6200;48.144;11.424;2023-06-22T14:12:16;38.00;57.50
12276;DHT22;6200;48.144;11.424;2023-06-22T14:14:43;37.60;57.30
12276;DHT22;6200;48.144;11.424;2023-06-22T14:17:09;37.30;57.50
12276;DHT22;6200;48.144;11.424;2023-06-22T14:19:35;37.10;58.30
12276;DHT22;6200;48.144;11.424;2023-06-22T14:22:00;36.90;59.30
12276;DHT22;6200;48.144;11.424;2023-06-22T14:24:26;36.90;59.40
12276;DHT22;6200;48.144;11.424;2023-06-22T14:26:51;36.70;59.50
12276;DHT22;6200;48.144;11.424;2023-06-22T14:29:17;36.60;59.60
12276;DHT22;6200;48.144;11.424;2023-06-22T14:31:45;36.50;61.10
12276;DHT22;6200;48.144;11.424;2023-06-22T14:34:11;36.40;59.70
12276;DHT22;6200;48.144;11.424;2023-06-22T14:36:37;36.30;60.80
12276;DHT22;6200;48.144;11.424;2023-06-22T14:39:02;36.20;60.90
12276;DHT22;6200;48.144;11.424;2023-06-22T14:41:29;36.10;60.80
12276;DHT22;6200;48.144;11.424;2023-06-22T14:43:55;36.00;60.30
12276;DHT22;6200;48.144;11.424;2023-06-22T14:46:20;36.00;61.50
12276;DHT22;6200;48.144;11.424;2023-06-22T14:48:46;35.90;61.80
12276;DHT22;6200;48.144;11.424;2023-06-22T14:51:12;35.80;60.90
12276;DHT22;6200;48.144;11.424;2023-06-22T14:53:37;35.70;61.60
12276;DHT22;6200;48.144;11.424;2023-06-22T14:56:03;35.60;59.00
12276;DHT22;6200;48.144;11.424;2023-06-22T14:58:30;35.40;60.10
12276;DHT22;6200;48.144;11.424;2023-06-22T15:00:59;35.40;59.30
12276;DHT22;6200;48.144;11.424;2023-06-22T15:03:25;35.30;58.50
12276;DHT22;6200;48.144;11.424;2023-06-22T15:05:54;35.30;59.80
12276;DHT22;6200;48.144;11.424;2023-06-22T15:08:20;35.20;59.90
12276;DHT22;6200;48.144;11.424;2023-06-22T15:10:46;35.10;59.80
12276;DHT22;6200;48.144;11.424;2023-06-22T15:13:12;35.10;60.70
12276;DHT22;6200;48.144;11.424;2023-06-22T15:15:37;35.00;59.70
12276;DHT22;6200;48.144;11.424;2023-06-22T15:18:03;35.00;60.80
12276;DHT22;6200;48.144;11.424;2023-06-22T15:20:28;34.90;60.30
12276;DHT22;6200;48.144;11.424;2023-06-22T15:22:54;34.70;59.30
12276;DHT22;6200;48.144;11.424;2023-06-22T15:25:20;34.60;61.30
12276;DHT22;6200;48.144;11.424;2023-06-22T15:27:45;34.50;61.10
12276;DHT22;6200;48.144;11.424;2023-06-22T15:30:11;34.40;60.40